createdAt,value
2023-06-29T00:01:47.907Z,18.78
2023-06-29T00:04:19.909Z,18.76
2023-06-29T00:06:46.422Z,18.71
2023-06-29T00:09:12.926Z,18.74
2023-06-29T00:11:39.343Z,18.65
2023-06-29T00:14:05.708Z,18.60
2023-06-29T00:16:32.395Z,18.59
2023-06-29T00:19:02.157Z,18.51
2023-06-29T00:21:32.651Z,18.53
2023-06-29T00:23:59.690Z,18.50
2023-06-29T00:26:30.253Z,18.50
2023-06-29T00:28:57.582Z,18.45
2023-06-29T00:31:25.299Z,18.48
2023-06-29T00:33:52.143Z,18.45
2023-06-29T00:36:19.061Z,18.42
2023-06-29T00:38:45.470Z,18.39
2023-06-29T00:41:11.727Z,18.43
2023-06-29T00:43:38.284Z,18.41
2023-06-29T00:46:08.773Z,18.40
2023-06-29T00:48:37.326Z,18.34
2023-06-29T00:51:04.703Z,18.34
2023-06-29T00:53:31.368Z,18.32
2023-06-29T00:55:59.838Z,18.31
2023-06-29T00:58:26.822Z,18.28
2023-06-29T01:00:53.179Z,18.29
2023-06-29T01:03:21.496Z,18.28
2023-06-29T01:05:50.306Z,18.21
2023-06-29T01:08:23.086Z,18.21
2023-06-29T01:10:50.092Z,18.21
2023-06-29T01:13:19.142Z,18.17
2023-06-29T01:15:47.934Z,18.19
2023-06-29T01:18:16.759Z,18.13
2023-06-29T01:20:44.946Z,18.16
2023-06-29T01:23:37.669Z,18.19
2023-06-29T01:26:05.258Z,18.13
2023-06-29T01:28:33.223Z,18.11
2023-06-29T01:31:03.275Z,18.05
2023-06-29T01:33:31.013Z,18.06
2023-06-29T01:36:32.633Z,17.99
2023-06-29T01:39:03.632Z,17.92
2023-06-29T01:41:36.018Z,17.92
2023-06-29T01:44:06.162Z,17.91
2023-06-29T01:46:33.450Z,17.88
2023-06-29T01:49:00.144Z,17.89
2023-06-29T01:51:26.703Z,17.88
2023-06-29T01:53:54.268Z,17.87
2023-06-29T01:56:21.005Z,17.84
2023-06-29T01:58:47.371Z,17.79
2023-06-29T02:01:13.775Z,17.82
2023-06-29T02:03:40.216Z,17.77
2023-06-29T02:06:06.846Z,17.78
2023-06-29T02:08:34.549Z,17.73
2023-06-29T02:11:01.571Z,17.77
2023-06-29T02:13:27.912Z,17.71
2023-06-29T02:15:54.352Z,17.71
2023-06-29T02:18:20.756Z,17.65
2023-06-29T02:20:47.222Z,17.63
2023-06-29T02:23:13.520Z,17.62
2023-06-29T02:25:39.846Z,17.62
2023-06-29T02:28:06.213Z,17.50
2023-06-29T02:30:32.530Z,17.59
2023-06-29T02:32:59.011Z,17.58
2023-06-29T02:35:25.323Z,17.51
2023-06-29T02:37:51.671Z,17.44
2023-06-29T02:40:18.040Z,17.44
2023-06-29T02:42:44.494Z,17.37
2023-06-29T02:45:10.804Z,17.44
2023-06-29T02:47:37.264Z,17.39
2023-06-29T02:50:03.874Z,17.46
2023-06-29T02:52:30.239Z,17.46
2023-06-29T02:54:56.552Z,17.47
2023-06-29T02:57:22.881Z,17.44
2023-06-29T02:59:49.241Z,17.43
2023-06-29T03:02:15.620Z,17.43
2023-06-29T03:04:41.913Z,17.46
2023-06-29T03:07:08.447Z,17.45
2023-06-29T03:09:34.781Z,17.37
2023-06-29T03:12:01.103Z,17.43
2023-06-29T03:14:27.441Z,17.40
2023-06-29T03:16:53.883Z,17.44
2023-06-29T03:19:20.217Z,17.42
2023-06-29T03:21:46.559Z,17.39
2023-06-29T03:24:13.162Z,17.31
2023-06-29T03:26:39.511Z,17.32
2023-06-29T03:29:05.857Z,17.34
2023-06-29T03:31:32.246Z,17.34
2023-06-29T03:33:58.602Z,17.31
2023-06-29T03:36:25.119Z,17.27
2023-06-29T03:38:51.458Z,17.25
2023-06-29T03:41:17.811Z,17.18
2023-06-29T03:43:44.203Z,17.20
2023-06-29T03:46:10.820Z,17.17
2023-06-29T03:48:37.645Z,17.18
2023-06-29T03:51:04.123Z,17.17
2023-06-29T03:53:30.432Z,17.20
2023-06-29T03:55:56.855Z,17.21
2023-06-29T03:58:23.237Z,17.19
2023-06-29T04:00:49.568Z,17.19
2023-06-29T04:03:15.997Z,17.11
2023-06-29T04:05:44.507Z,17.18
2023-06-29T04:08:11.031Z,17.20
2023-06-29T04:10:37.378Z,17.23
2023-06-29T04:13:03.810Z,17.24
2023-06-29T04:15:31.328Z,17.27
2023-06-29T04:17:57.706Z,17.25
2023-06-29T04:20:24.107Z,17.28
2023-06-29T04:22:50.434Z,17.34
2023-06-29T04:25:16.872Z,17.39
2023-06-29T04:27:43.498Z,17.39
2023-06-29T04:30:10.241Z,17.39
2023-06-29T04:32:36.664Z,17.50
2023-06-29T04:35:03.181Z,17.53
2023-06-29T04:37:41.689Z,17.55
2023-06-29T04:40:15.274Z,17.60
2023-06-29T04:42:49.074Z,17.59
2023-06-29T04:45:20.156Z,17.55
2023-06-29T04:47:47.949Z,17.68
2023-06-29T04:50:14.592Z,17.71
2023-06-29T04:52:41.199Z,17.74
2023-06-29T04:55:09.176Z,17.77
2023-06-29T04:57:36.060Z,17.79
2023-06-29T05:00:02.459Z,17.83
2023-06-29T05:02:29.003Z,17.91
2023-06-29T05:04:55.568Z,17.98
2023-06-29T05:07:21.934Z,18.06
2023-06-29T05:09:48.258Z,18.12
2023-06-29T05:12:15.639Z,18.15
2023-06-29T05:14:41.976Z,18.22
2023-06-29T05:17:08.779Z,18.30
2023-06-29T05:19:36.690Z,18.36
2023-06-29T05:22:03.653Z,18.42
2023-06-29T05:24:31.028Z,18.53
2023-06-29T05:26:57.614Z,18.63
2023-06-29T05:29:24.254Z,18.70
2023-06-29T05:31:50.631Z,18.82
2023-06-29T05:34:17.008Z,18.93
2023-06-29T05:36:43.356Z,19.03
2023-06-29T05:39:09.738Z,19.08
2023-06-29T05:41:36.177Z,19.13
2023-06-29T05:44:02.633Z,19.32
2023-06-29T05:46:29.034Z,19.43
2023-06-29T05:48:55.410Z,19.54
2023-06-29T05:51:21.721Z,19.66
2023-06-29T05:53:48.121Z,19.76
2023-06-29T05:56:14.507Z,19.90
2023-06-29T05:58:40.829Z,20.04
2023-06-29T06:01:07.391Z,20.15
2023-06-29T06:03:34.389Z,20.24
2023-06-29T06:06:00.963Z,20.34
2023-06-29T06:08:27.306Z,20.39
2023-06-29T06:10:53.666Z,20.48
2023-06-29T06:13:20.134Z,20.49
2023-06-29T06:15:46.657Z,20.59
2023-06-29T06:18:13.082Z,20.67
2023-06-29T06:20:39.684Z,20.75
2023-06-29T06:23:06.626Z,20.77
2023-06-29T06:25:33.014Z,20.83
2023-06-29T06:27:59.348Z,20.88
2023-06-29T06:30:25.759Z,20.92
2023-06-29T06:32:52.187Z,20.97
2023-06-29T06:35:18.543Z,21.05
2023-06-29T06:37:44.914Z,21.12
2023-06-29T06:40:11.783Z,21.19
2023-06-29T06:42:38.608Z,21.28
2023-06-29T06:45:06.379Z,21.35
2023-06-29T06:47:36.546Z,21.41
2023-06-29T06:50:04.868Z,21.51
2023-06-29T06:52:31.293Z,21.59
2023-06-29T06:54:57.786Z,21.72
2023-06-29T06:57:24.240Z,21.78
2023-06-29T06:59:50.602Z,21.93
2023-06-29T07:02:17.265Z,22.07
2023-06-29T07:04:43.867Z,22.21
2023-06-29T07:07:10.394Z,22.40
2023-06-29T07:09:36.929Z,22.56
2023-06-29T07:12:03.562Z,22.74
2023-06-29T07:14:29.957Z,22.91
2023-06-29T07:16:56.859Z,22.97
2023-06-29T07:24:22.487Z,23.25
2023-06-29T07:26:49.099Z,23.40
2023-06-29T07:29:15.539Z,23.51
2023-06-29T07:31:41.873Z,23.70
2023-06-29T07:34:08.300Z,23.79
2023-06-29T07:36:35.458Z,23.95
2023-06-29T07:39:01.864Z,24.14
2023-06-29T07:41:28.694Z,24.25
2023-06-29T07:43:57.284Z,24.36
2023-06-29T07:46:24.409Z,24.58
2023-06-29T07:48:51.882Z,24.78
2023-06-29T07:51:18.792Z,24.97
2023-06-29T07:53:45.442Z,25.15
2023-06-29T07:56:11.857Z,25.25
2023-06-29T07:58:40.102Z,25.43
2023-06-29T08:01:07.068Z,25.81
2023-06-29T08:03:44.101Z,26.64
2023-06-29T08:08:47.947Z,29.73
2023-06-29T08:11:17.814Z,31.37
2023-06-29T08:13:44.168Z,32.91
2023-06-29T08:16:10.644Z,33.80
2023-06-29T08:18:37.163Z,34.48
2023-06-29T08:21:03.668Z,34.49
2023-06-29T08:23:32.850Z,33.94
2023-06-29T08:25:59.255Z,33.18
2023-06-29T08:28:25.610Z,32.26
2023-06-29T08:30:52.652Z,31.28
2023-06-29T08:33:19.101Z,30.70
2023-06-29T08:35:45.580Z,30.46
2023-06-29T08:38:11.953Z,30.85
2023-06-29T08:40:39.555Z,31.01
2023-06-29T08:43:06.014Z,30.83
2023-06-29T08:45:32.380Z,30.71
2023-06-29T08:48:01.483Z,30.56
2023-06-29T08:50:28.083Z,30.09
2023-06-29T08:52:55.715Z,29.95
2023-06-29T08:55:23.960Z,30.23
2023-06-29T08:57:50.481Z,31.20
2023-06-29T09:00:17.147Z,32.00
2023-06-29T09:02:44.507Z,32.57
2023-06-29T09:05:13.236Z,32.96
2023-06-29T09:07:41.556Z,33.07
2023-06-29T09:10:11.380Z,33.43
2023-06-29T09:12:38.039Z,33.40
2023-06-29T09:15:12.419Z,33.62
2023-06-29T09:17:45.621Z,33.18
2023-06-29T09:20:14.506Z,32.99
2023-06-29T09:22:41.914Z,33.14
2023-06-29T09:25:23.462Z,33.72
2023-06-29T09:28:08.547Z,33.91
2023-06-29T09:30:39.911Z,33.90
2023-06-29T09:33:13.538Z,33.97
2023-06-29T09:35:44.947Z,33.79
2023-06-29T09:38:11.702Z,34.06
2023-06-29T09:40:49.109Z,34.26
2023-06-29T09:43:17.228Z,33.53
2023-06-29T09:45:43.741Z,33.08
2023-06-29T09:50:49.204Z,32.12
2023-06-29T09:53:16.428Z,32.33
2023-06-29T09:55:43.783Z,32.19
2023-06-29T09:58:11.523Z,31.56
2023-06-29T10:00:38.626Z,31.35
2023-06-29T10:03:05.323Z,31.74
2023-06-29T10:05:33.071Z,31.70
2023-06-29T10:08:05.592Z,31.52
2023-06-29T10:10:34.438Z,31.53
2023-06-29T10:13:05.798Z,31.53
2023-06-29T10:15:34.164Z,31.56
2023-06-29T10:18:05.217Z,31.40
2023-06-29T10:20:33.842Z,30.93
2023-06-29T10:23:04.346Z,30.59
2023-06-29T10:25:33.477Z,30.55
2023-06-29T10:28:01.067Z,30.59
2023-06-29T10:30:27.371Z,30.39
2023-06-29T10:32:54.471Z,30.24
2023-06-29T10:35:26.810Z,29.96
2023-06-29T10:37:57.745Z,29.54
2023-06-29T10:40:27.045Z,29.50
2023-06-29T10:42:57.447Z,29.53
2023-06-29T10:45:23.829Z,29.50
2023-06-29T10:47:59.319Z,29.43
2023-06-29T10:50:29.683Z,29.33
2023-06-29T10:53:00.850Z,29.14
2023-06-29T10:55:32.198Z,28.88
2023-06-29T10:58:12.873Z,28.65
2023-06-29T11:00:39.685Z,28.63
2023-06-29T11:03:06.857Z,28.52
2023-06-29T11:05:34.341Z,28.31
2023-06-29T11:08:01.096Z,28.11
2023-06-29T11:10:27.578Z,28.13
2023-06-29T11:12:56.634Z,28.06
2023-06-29T11:15:23.961Z,28.09
2023-06-29T11:17:52.284Z,28.16
2023-06-29T11:20:23.861Z,28.14
2023-06-29T11:22:52.401Z,27.91
2023-06-29T11:25:21.233Z,27.79
2023-06-29T11:27:47.690Z,27.62
2023-06-29T11:30:14.200Z,27.52
2023-06-29T11:32:42.045Z,27.41
2023-06-29T11:35:13.706Z,27.41
2023-06-29T11:37:40.550Z,27.38
2023-06-29T11:40:18.008Z,27.28
2023-06-29T11:42:44.606Z,27.20
2023-06-29T11:45:11.931Z,26.98
2023-06-29T11:47:38.702Z,26.90
2023-06-29T11:50:08.616Z,26.87
2023-06-29T11:52:36.832Z,26.72
2023-06-29T11:55:08.504Z,26.53
2023-06-29T11:57:36.126Z,26.44
2023-06-29T12:00:05.166Z,26.28
2023-06-29T12:02:31.994Z,26.22
2023-06-29T12:04:59.965Z,26.17
2023-06-29T12:07:37.604Z,26.05
2023-06-29T12:10:14.596Z,26.08
2023-06-29T12:12:46.530Z,26.03
2023-06-29T12:15:17.062Z,26.06
2023-06-29T12:20:18.612Z,25.94
2023-06-29T12:22:47.056Z,25.75
2023-06-29T12:25:16.009Z,25.56
2023-06-29T12:27:44.286Z,25.36
2023-06-29T12:30:12.724Z,25.21
2023-06-29T12:32:39.244Z,25.04
2023-06-29T12:35:06.090Z,24.92
2023-06-29T12:37:32.458Z,24.85
2023-06-29T12:39:58.859Z,24.76
2023-06-29T12:42:25.231Z,24.79
2023-06-29T12:44:51.857Z,24.81
2023-06-29T12:47:21.458Z,24.79
2023-06-29T12:49:48.376Z,24.80
2023-06-29T12:52:16.903Z,24.90
2023-06-29T12:54:43.443Z,25.01
2023-06-29T12:57:10.160Z,25.08
2023-06-29T12:59:39.437Z,25.18
2023-06-29T13:02:06.968Z,25.19
2023-06-29T13:04:39.224Z,25.25
2023-06-29T13:07:06.638Z,25.36
2023-06-29T13:09:35.230Z,25.49
2023-06-29T13:12:02.275Z,25.70
2023-06-29T13:14:32.129Z,25.80
2023-06-29T13:16:59.386Z,25.90
2023-06-29T13:19:27.450Z,26.09
2023-06-29T13:21:55.326Z,26.23
2023-06-29T13:24:23.295Z,26.39
2023-06-29T13:26:51.147Z,26.51
2023-06-29T13:29:20.477Z,26.55
2023-06-29T13:31:47.140Z,26.73
2023-06-29T13:34:14.369Z,27.00
2023-06-29T13:36:40.737Z,27.26
2023-06-29T13:39:08.489Z,27.49
2023-06-29T13:41:39.678Z,27.77
2023-06-29T13:44:07.113Z,28.20
2023-06-29T13:46:33.500Z,28.41
2023-06-29T13:49:00.097Z,28.30
2023-06-29T13:51:31.201Z,27.97
2023-06-29T13:53:58.569Z,27.65
2023-06-29T13:56:25.370Z,27.54
2023-06-29T13:58:54.952Z,27.42
2023-06-29T14:01:21.868Z,27.36
2023-06-29T14:03:49.057Z,27.26
2023-06-29T14:06:19.595Z,27.18
2023-06-29T14:08:47.640Z,27.14
2023-06-29T14:11:14.069Z,27.14
2023-06-29T14:13:40.536Z,27.15
2023-06-29T14:16:07.005Z,27.19
2023-06-29T14:18:33.415Z,27.30
2023-06-29T14:20:59.813Z,27.35
2023-06-29T14:23:26.837Z,27.53
2023-06-29T14:25:53.190Z,27.85
2023-06-29T14:28:19.877Z,28.18
2023-06-29T14:30:46.689Z,28.53
2023-06-29T14:33:24.202Z,28.75
2023-06-29T14:35:58.922Z,28.86
2023-06-29T14:38:26.337Z,28.99
2023-06-29T14:40:52.725Z,28.97
2023-06-29T14:43:19.627Z,28.85
2023-06-29T14:45:46.197Z,28.73
2023-06-29T14:48:12.794Z,28.62
2023-06-29T14:50:39.197Z,28.66
2023-06-29T14:53:05.671Z,28.71
2023-06-29T14:55:32.084Z,29.04
2023-06-29T14:58:01.266Z,29.22
2023-06-29T15:00:27.758Z,29.43
2023-06-29T15:02:54.218Z,29.52
2023-06-29T15:05:20.679Z,29.54
2023-06-29T15:07:47.059Z,29.39
2023-06-29T15:10:13.456Z,29.14
2023-06-29T15:12:39.908Z,29.02
2023-06-29T15:15:06.953Z,28.93
2023-06-29T15:17:33.338Z,29.00
2023-06-29T15:20:00.855Z,28.92
2023-06-29T15:22:27.814Z,28.91
2023-06-29T15:24:54.610Z,28.92
2023-06-29T15:27:20.995Z,28.71
2023-06-29T15:29:50.600Z,28.51
2023-06-29T15:32:16.938Z,28.41
2023-06-29T15:34:43.290Z,28.24
2023-06-29T15:37:09.776Z,28.29
2023-06-29T15:39:36.391Z,28.37
2023-06-29T15:42:03.386Z,28.65
2023-06-29T15:44:29.745Z,28.84
2023-06-29T15:46:56.367Z,28.84
2023-06-29T15:49:23.055Z,28.77
2023-06-29T15:51:50.159Z,28.62
2023-06-29T15:54:18.087Z,28.41
2023-06-29T15:56:45.201Z,28.19
2023-06-29T15:59:12.342Z,28.02
2023-06-29T16:01:39.172Z,27.91
2023-06-29T16:04:17.117Z,27.82
2023-06-29T16:06:46.419Z,27.74
2023-06-29T16:09:13.176Z,27.64
2023-06-29T16:11:39.693Z,27.62
2023-06-29T16:14:06.166Z,27.68
2023-06-29T16:16:32.543Z,27.71
2023-06-29T16:18:58.900Z,27.75
2023-06-29T16:21:25.258Z,27.75
2023-06-29T16:23:51.675Z,27.80
2023-06-29T16:26:18.333Z,27.80
2023-06-29T16:28:44.735Z,27.80
2023-06-29T16:31:11.220Z,27.77
2023-06-29T16:33:37.864Z,27.72
2023-06-29T16:36:04.357Z,27.58
2023-06-29T16:38:30.709Z,27.60
2023-06-29T16:40:57.589Z,27.57
2023-06-29T16:43:23.977Z,27.52
2023-06-29T16:45:50.976Z,27.46
2023-06-29T16:48:17.445Z,27.42
2023-06-29T16:50:43.941Z,27.63
2023-06-29T16:53:10.425Z,27.84
2023-06-29T16:55:36.815Z,28.06
2023-06-29T16:58:03.932Z,28.25
2023-06-29T17:00:30.594Z,28.34
2023-06-29T17:02:57.073Z,28.31
2023-06-29T17:05:23.596Z,28.16
2023-06-29T17:07:50.164Z,27.97
2023-06-29T17:10:16.563Z,27.75
2023-06-29T17:12:42.978Z,27.65
2023-06-29T17:15:10.236Z,27.55
2023-06-29T17:17:36.707Z,27.55
2023-06-29T17:20:03.929Z,27.53
2023-06-29T17:22:30.356Z,27.53
2023-06-29T17:24:56.740Z,27.55
2023-06-29T17:27:23.162Z,27.48
2023-06-29T17:29:49.821Z,27.44
2023-06-29T17:32:16.206Z,27.41
2023-06-29T17:34:42.693Z,27.38
2023-06-29T17:37:10.571Z,27.32
2023-06-29T17:39:37.080Z,27.19
2023-06-29T17:42:03.770Z,27.12
2023-06-29T17:44:30.490Z,27.02
2023-06-29T17:46:57.192Z,26.93
2023-06-29T17:49:27.878Z,26.91
2023-06-29T17:51:54.826Z,26.85
2023-06-29T17:54:21.257Z,26.77
2023-06-29T17:56:47.589Z,26.71
2023-06-29T17:59:13.979Z,26.65
2023-06-29T18:01:40.400Z,26.61
2023-06-29T18:04:07.043Z,26.59
2023-06-29T18:06:33.678Z,26.52
2023-06-29T18:09:03.333Z,26.47
2023-06-29T18:11:29.727Z,26.40
2023-06-29T18:13:56.130Z,26.34
2023-06-29T18:16:25.638Z,26.24
2023-06-29T18:18:52.132Z,26.21
2023-06-29T18:21:21.070Z,26.15
2023-06-29T18:23:47.465Z,26.06
2023-06-29T18:26:13.870Z,25.99
2023-06-29T18:28:40.253Z,25.98
2023-06-29T18:31:07.778Z,25.92
2023-06-29T18:33:37.246Z,25.90
2023-06-29T18:36:06.704Z,25.83
2023-06-29T18:38:33.086Z,25.82
2023-06-29T18:41:04.173Z,25.79
2023-06-29T18:43:30.603Z,25.75
2023-06-29T18:45:57.061Z,25.67
2023-06-29T18:48:23.490Z,25.68
2023-06-29T18:50:49.840Z,25.61
2023-06-29T18:53:16.328Z,25.58
2023-06-29T18:55:42.975Z,25.55
2023-06-29T18:58:09.389Z,25.53
2023-06-29T19:00:36.842Z,25.50
2023-06-29T19:03:03.419Z,25.46
2023-06-29T19:05:30.821Z,25.38
2023-06-29T19:07:57.355Z,25.33
2023-06-29T19:10:23.792Z,25.28
2023-06-29T19:12:50.339Z,25.23
2023-06-29T19:15:16.980Z,25.17
2023-06-29T19:17:43.787Z,25.17
2023-06-29T19:20:10.877Z,25.15
2023-06-29T19:22:37.367Z,25.09
2023-06-29T19:25:07.873Z,25.03
2023-06-29T19:27:34.284Z,25.01
2023-06-29T19:30:00.694Z,24.93
2023-06-29T19:32:27.135Z,24.91
2023-06-29T19:34:53.550Z,24.83
2023-06-29T19:37:21.487Z,24.81
2023-06-29T19:39:49.737Z,24.73
2023-06-29T19:42:16.219Z,24.66
2023-06-29T19:44:42.540Z,24.62
2023-06-29T19:47:09.118Z,24.50
2023-06-29T19:49:35.491Z,24.43
2023-06-29T19:52:01.890Z,24.40
2023-06-29T19:54:28.269Z,24.31
2023-06-29T19:56:54.738Z,24.27
2023-06-29T19:59:21.259Z,24.19
2023-06-29T20:01:47.696Z,24.15
2023-06-29T20:04:14.163Z,24.02
2023-06-29T20:06:40.669Z,23.96
2023-06-29T20:09:07.081Z,23.86
2023-06-29T20:11:33.553Z,23.77
2023-06-29T20:13:59.934Z,23.75
2023-06-29T20:16:26.372Z,23.68
2023-06-29T20:18:52.816Z,23.63
2023-06-29T20:21:19.241Z,23.53
2023-06-29T20:23:51.236Z,23.47
2023-06-29T20:26:18.863Z,23.38
2023-06-29T20:28:45.462Z,23.32
2023-06-29T20:31:11.852Z,23.26
2023-06-29T20:33:38.402Z,23.17
2023-06-29T20:36:04.832Z,23.09
2023-06-29T20:38:31.260Z,23.00
2023-06-29T20:40:57.658Z,22.92
2023-06-29T20:43:23.983Z,22.85
2023-06-29T20:45:51.176Z,22.82
2023-06-29T20:48:17.846Z,22.76
2023-06-29T20:50:44.473Z,22.68
2023-06-29T20:53:11.327Z,22.66
2023-06-29T20:55:37.727Z,22.61
2023-06-29T20:58:04.195Z,22.58
2023-06-29T21:00:30.859Z,22.51
2023-06-29T21:02:57.492Z,22.49
2023-06-29T21:05:25.065Z,22.45
2023-06-29T21:07:53.377Z,22.47
2023-06-29T21:10:19.819Z,22.44
2023-06-29T21:12:46.472Z,22.37
2023-06-29T21:15:13.350Z,22.35
2023-06-29T21:17:39.902Z,22.27
2023-06-29T21:20:07.266Z,22.21
2023-06-29T21:22:35.368Z,22.13
2023-06-29T21:25:02.777Z,22.07
2023-06-29T21:27:30.260Z,22.00
2023-06-29T21:29:57.268Z,21.99
2023-06-29T21:32:23.819Z,21.94
2023-06-29T21:34:50.337Z,21.92
2023-06-29T21:37:16.944Z,21.89
2023-06-29T21:39:43.374Z,21.85
2023-06-29T21:42:09.851Z,21.81
2023-06-29T21:44:36.397Z,21.79
2023-06-29T21:47:03.776Z,21.76
2023-06-29T21:49:30.503Z,21.76
2023-06-29T21:51:57.038Z,21.73
2023-06-29T21:54:23.516Z,21.68
2023-06-29T21:56:52.569Z,21.59
2023-06-29T21:59:19.076Z,21.52
2023-06-29T22:01:45.552Z,21.48
2023-06-29T22:04:12.244Z,21.44
2023-06-29T22:06:38.690Z,21.39
2023-06-29T22:09:05.013Z,21.33
2023-06-29T22:11:31.446Z,21.25
2023-06-29T22:13:57.892Z,21.26
2023-06-29T22:16:24.426Z,21.18
2023-06-29T22:18:51.849Z,21.17
2023-06-29T22:21:22.020Z,21.12
2023-06-29T22:23:50.425Z,21.10
2023-06-29T22:26:17.287Z,21.03
2023-06-29T22:28:44.228Z,21.04
2023-06-29T22:31:10.940Z,20.96
2023-06-29T22:33:37.347Z,20.95
2023-06-29T22:36:04.069Z,20.94
2023-06-29T22:38:30.953Z,20.91
2023-06-29T22:40:58.332Z,20.88
2023-06-29T22:43:24.676Z,20.88
2023-06-29T22:45:51.775Z,20.82
2023-06-29T22:48:21.904Z,20.82
2023-06-29T22:50:48.336Z,20.82
2023-06-29T22:53:14.720Z,20.83
2023-06-29T22:55:41.491Z,20.84
2023-06-29T22:58:07.836Z,20.78
2023-06-29T23:00:34.215Z,20.77
2023-06-29T23:03:00.811Z,20.71
2023-06-29T23:05:27.247Z,20.70
2023-06-29T23:07:53.597Z,20.66
2023-06-29T23:10:20.907Z,20.64
2023-06-29T23:12:47.425Z,20.63
2023-06-29T23:15:14.537Z,20.58
2023-06-29T23:17:41.242Z,20.57
2023-06-29T23:20:11.822Z,20.54
2023-06-29T23:22:38.955Z,20.53
2023-06-29T23:25:08.158Z,20.49
2023-06-29T23:27:38.210Z,20.48
2023-06-29T23:30:09.323Z,20.46
2023-06-29T23:32:37.217Z,20.39
2023-06-29T23:35:07.117Z,20.35
2023-06-29T23:37:33.471Z,20.36
2023-06-29T23:39:59.854Z,20.34
2023-06-29T23:42:26.304Z,20.31
2023-06-29T23:44:53.243Z,20.25
2023-06-29T23:47:19.762Z,20.24
2023-06-29T23:49:48.342Z,20.21
2023-06-29T23:52:15.036Z,20.20
2023-06-29T23:54:41.521Z,20.13
2023-06-29T23:57:07.907Z,20.13
2023-06-29T23:59:34.245Z,20.10
